Time;durP1;ratioP1;P1;durP2;ratioP2;P2;SDS_P1;SDS_P2;PMS_P1;PMS_P2;Temp;Humidity;BMP_temperature;BMP_pressure;BME280_temperature;BME280_humidity;BME280_pressure;Samples;Min_cycle;Max_cycle;Signal;HPM_P1;HPM_P2
2023/12/21 00:01:36;;;;;;;1.30;1.30;;;16.60;66.50;;;;;;4941705;28;43406;-71
2023/12/21 00:04:06;;;;;;;1.30;1.30;;;16.70;66.20;;;;;;4946533;28;43433;-72
2023/12/21 00:06:34;;;;;;;1.53;1.50;;;16.70;66.30;;;;;;4941310;28;43698;-76
2023/12/21 00:09:02;;;;;;;1.30;1.30;;;16.70;66.30;;;;;;4942782;28;43324;-72
2023/12/21 00:11:30;;;;;;;1.40;1.40;;;16.70;66.40;;;;;;4942292;28;43489;-71
2023/12/21 00:13:59;;;;;;;1.40;1.40;;;16.60;66.40;;;;;;4941365;28;43418;-71
2023/12/21 00:16:27;;;;;;;1.20;1.20;;;16.70;66.50;;;;;;4947479;28;43601;-72
2023/12/21 00:18:58;;;;;;;1.40;1.40;;;16.60;66.50;;;;;;4944163;28;43454;-72
2023/12/21 00:21:26;;;;;;;1.20;1.20;;;16.60;66.60;;;;;;4940885;28;43402;-72
2023/12/21 00:23:54;;;;;;;1.30;1.30;;;16.60;66.70;;;;;;4950227;28;43438;-68
2023/12/21 00:26:23;;;;;;;1.33;1.33;;;16.60;66.70;;;;;;4969066;28;43620;-68
2023/12/21 00:28:51;;;;;;;1.30;1.30;;;16.60;66.80;;;;;;4971780;28;43418;-68
2023/12/21 00:31:19;;;;;;;1.30;1.30;;;16.50;66.60;;;;;;4969054;28;43602;-69
2023/12/21 00:33:48;;;;;;;1.20;1.20;;;16.60;66.90;;;;;;4973354;28;43394;-68
2023/12/21 00:36:17;;;;;;;1.30;1.30;;;16.60;66.90;;;;;;4970510;28;43748;-69
2023/12/21 00:38:45;;;;;;;1.30;1.30;;;16.50;66.80;;;;;;4969135;28;43437;-69
2023/12/21 00:41:13;;;;;;;1.30;1.30;;;16.50;66.90;;;;;;4965125;28;43988;-70
2023/12/21 00:43:41;;;;;;;1.30;1.30;;;16.50;66.90;;;;;;4970921;28;43382;-69
2023/12/21 00:46:09;;;;;;;1.20;1.20;;;16.50;66.80;;;;;;4966350;28;43612;-68
2023/12/21 00:48:37;;;;;;;1.20;1.20;;;16.50;66.70;;;;;;4966489;28;43407;-68
2023/12/21 00:51:06;;;;;;;1.30;1.30;;;16.60;66.40;;;;;;4963821;28;43421;-69
2023/12/21 00:53:36;;;;;;;1.30;1.30;;;16.70;66.30;;;;;;4971337;28;43382;-69
2023/12/21 00:56:04;;;;;;;1.10;1.10;;;16.70;66.30;;;;;;4967298;28;43605;-68
2023/12/21 00:58:32;;;;;;;1.20;1.20;;;16.60;66.30;;;;;;4966305;28;43308;-68
2023/12/21 01:01:00;;;;;;;1.20;1.20;;;16.70;66.50;;;;;;4971469;28;43322;-68
2023/12/21 01:03:28;;;;;;;1.20;1.20;;;16.60;66.40;;;;;;4971851;28;43818;-68
2023/12/21 01:05:57;;;;;;;1.00;1.00;;;16.60;66.50;;;;;;4973156;28;43880;-69
2023/12/21 01:08:25;;;;;;;1.60;1.60;;;16.60;66.50;;;;;;4966896;28;43390;-69
2023/12/21 01:10:54;;;;;;;1.30;1.30;;;16.60;66.60;;;;;;4974126;28;43441;-69
2023/12/21 01:13:22;;;;;;;1.20;1.20;;;16.60;66.70;;;;;;4975811;28;43335;-69
2023/12/21 01:15:50;;;;;;;1.20;1.20;;;16.60;66.80;;;;;;4970225;28;45640;-68
2023/12/21 01:18:18;;;;;;;1.10;1.10;;;16.60;66.80;;;;;;4970023;28;43833;-69
2023/12/21 01:20:46;;;;;;;1.20;1.20;;;16.50;66.70;;;;;;4969982;28;43426;-69
2023/12/21 01:23:14;;;;;;;1.33;1.33;;;16.50;66.80;;;;;;4969269;28;43445;-69
2023/12/21 01:25:42;;;;;;;1.00;1.00;;;16.50;66.80;;;;;;4970084;28;43617;-68
2023/12/21 01:28:12;;;;;;;1.03;1.03;;;16.50;66.80;;;;;;4970681;28;44798;-68
2023/12/21 01:30:40;;;;;;;1.00;1.00;;;16.50;66.90;;;;;;4973531;28;43418;-68
2023/12/21 01:33:08;;;;;;;0.90;0.90;;;16.50;66.90;;;;;;4969363;28;43553;-71
2023/12/21 01:35:36;;;;;;;1.17;1.17;;;16.50;66.80;;;;;;4972514;28;43629;-69
2023/12/21 01:38:04;;;;;;;1.10;1.10;;;16.50;66.70;;;;;;4972736;28;43334;-69
2023/12/21 01:40:32;;;;;;;0.90;0.90;;;16.60;66.50;;;;;;4975231;28;43389;-69
2023/12/21 01:43:01;;;;;;;0.80;0.80;;;16.70;66.40;;;;;;4972634;28;43447;-69
2023/12/21 01:45:30;;;;;;;1.00;1.00;;;16.60;66.30;;;;;;4972820;28;46059;-70
2023/12/21 01:47:58;;;;;;;0.97;0.97;;;16.70;66.40;;;;;;4969494;28;43939;-69
2023/12/21 01:50:26;;;;;;;1.00;1.00;;;16.70;66.50;;;;;;4972102;28;43449;-69
2023/12/21 01:52:55;;;;;;;0.93;0.93;;;16.60;66.40;;;;;;4969059;28;43537;-69
2023/12/21 01:55:23;;;;;;;0.70;0.70;;;16.60;66.40;;;;;;4969437;28;43608;-69
2023/12/21 01:57:51;;;;;;;0.83;0.83;;;16.60;66.50;;;;;;4973679;28;43827;-70
2023/12/21 02:00:19;;;;;;;0.93;0.93;;;16.60;66.60;;;;;;4971804;28;43438;-69
2023/12/21 02:02:49;;;;;;;1.00;1.00;;;16.60;66.70;;;;;;4972095;28;43378;-69
2023/12/21 02:05:17;;;;;;;1.10;1.10;;;16.50;66.70;;;;;;4973047;28;43684;-69
2023/12/21 02:07:45;;;;;;;0.80;0.80;;;16.50;66.70;;;;;;4972124;28;44686;-69
2023/12/21 02:10:13;;;;;;;0.90;0.90;;;16.50;66.70;;;;;;4970199;28;43584;-69
2023/12/21 02:12:41;;;;;;;1.00;1.00;;;16.50;66.80;;;;;;4971194;28;43450;-69
2023/12/21 02:15:10;;;;;;;0.90;0.90;;;16.50;66.80;;;;;;4970156;28;43599;-69
2023/12/21 02:17:38;;;;;;;1.00;1.00;;;16.50;66.90;;;;;;4970561;28;43301;-69
2023/12/21 02:20:09;;;;;;;0.83;0.83;;;16.50;66.90;;;;;;4975509;28;43390;-69
2023/12/21 02:22:38;;;;;;;0.80;0.80;;;16.50;66.90;;;;;;4964156;28;43355;-69
2023/12/21 02:25:08;;;;;;;1.17;1.17;;;16.50;66.90;;;;;;4972511;28;43835;-69
2023/12/21 02:27:36;;;;;;;0.70;0.70;;;16.50;66.70;;;;;;4969457;28;43385;-69
2023/12/21 02:30:04;;;;;;;0.70;0.70;;;16.60;66.60;;;;;;4974733;28;43430;-69
2023/12/21 02:32:32;;;;;;;0.80;0.80;;;16.70;66.20;;;;;;4969958;28;43362;-70
2023/12/21 02:35:00;;;;;;;0.90;0.90;;;16.70;66.20;;;;;;4964305;28;43876;-69
2023/12/21 02:37:30;;;;;;;0.80;0.80;;;16.70;66.30;;;;;;4970776;28;43419;-69
2023/12/21 02:39:58;;;;;;;0.90;0.90;;;16.60;66.30;;;;;;4971708;28;43437;-70
2023/12/21 02:42:28;;;;;;;0.80;0.80;;;16.60;66.30;;;;;;4975764;28;43441;-70
2023/12/21 02:44:56;;;;;;;0.80;0.80;;;16.60;66.40;;;;;;4947173;28;43843;-72
2023/12/21 02:47:24;;;;;;;0.80;0.80;;;16.60;66.50;;;;;;4947538;28;43441;-71
2023/12/21 02:49:52;;;;;;;0.83;0.83;;;16.60;66.50;;;;;;4943650;28;43418;-72
2023/12/21 02:52:20;;;;;;;0.90;0.90;;;16.60;66.70;;;;;;4945311;28;43389;-71
2023/12/21 02:54:48;;;;;;;0.80;0.80;;;16.50;66.60;;;;;;4945762;28;43937;-71
2023/12/21 02:57:16;;;;;;;0.80;0.80;;;16.50;66.70;;;;;;4948547;28;43900;-71
2023/12/21 02:59:45;;;;;;;0.80;0.80;;;16.50;66.70;;;;;;4944735;28;43419;-72
2023/12/21 03:02:13;;;;;;;0.70;0.70;;;16.50;66.70;;;;;;4945836;28;43895;-71
2023/12/21 03:04:41;;;;;;;0.80;0.80;;;16.50;66.80;;;;;;4943125;28;43613;-72
2023/12/21 03:07:09;;;;;;;0.87;0.87;;;16.50;66.80;;;;;;4948218;28;44075;-78
2023/12/21 03:09:37;;;;;;;0.80;0.80;;;16.50;66.90;;;;;;4947489;28;43485;-71
2023/12/21 03:12:06;;;;;;;0.90;0.90;;;16.50;67.60;;;;;;4943475;28;43829;-71
2023/12/21 03:14:34;;;;;;;0.80;0.80;;;16.50;66.90;;;;;;4942000;28;43932;-71
2023/12/21 03:17:04;;;;;;;0.90;0.90;;;16.50;66.80;;;;;;4948681;28;43995;-71
2023/12/21 03:19:32;;;;;;;1.00;0.90;;;16.50;66.50;;;;;;4939024;28;43345;-71
2023/12/21 03:22:00;;;;;;;0.90;0.90;;;16.60;66.30;;;;;;4942747;28;43492;-71
2023/12/21 03:24:28;;;;;;;0.70;0.70;;;16.70;66.40;;;;;;4940950;28;43926;-71
2023/12/21 03:26:56;;;;;;;0.60;0.60;;;16.60;66.40;;;;;;4946886;28;43406;-71
2023/12/21 03:29:24;;;;;;;0.90;0.90;;;16.60;66.50;;;;;;4949079;28;43395;-71
2023/12/21 03:31:54;;;;;;;0.90;0.90;;;16.50;66.40;;;;;;4942951;28;43465;-71
2023/12/21 03:34:23;;;;;;;0.70;0.70;;;16.50;66.40;;;;;;4945822;28;43950;-71
2023/12/21 03:36:51;;;;;;;0.43;0.43;;;16.50;66.60;;;;;;4944770;28;43565;-71
2023/12/21 03:39:19;;;;;;;0.70;0.70;;;16.50;66.60;;;;;;4942872;28;43442;-72
2023/12/21 03:41:47;;;;;;;0.63;0.63;;;16.50;66.70;;;;;;4943792;28;43394;-71
2023/12/21 03:44:15;;;;;;;0.63;0.63;;;16.50;66.80;;;;;;4942552;28;44048;-71
2023/12/21 03:46:43;;;;;;;0.60;0.60;;;16.50;66.80;;;;;;4943314;28;43422;-71
2023/12/21 03:49:11;;;;;;;0.77;0.77;;;16.50;66.90;;;;;;4944521;28;43998;-71
2023/12/21 03:51:41;;;;;;;0.80;0.80;;;16.50;66.70;;;;;;4943348;28;43392;-72
2023/12/21 03:54:08;;;;;;;0.60;0.60;;;16.50;66.50;;;;;;4953881;28;43621;-69
2023/12/21 03:56:38;;;;;;;0.70;0.70;;;16.60;66.60;;;;;;4970229;28;43414;-69
2023/12/21 03:59:08;;;;;;;0.70;0.70;;;16.50;66.50;;;;;;4964950;28;43393;-69
2023/12/21 04:01:36;;;;;;;0.77;0.77;;;16.50;66.60;;;;;;4968670;28;43940;-69
2023/12/21 04:04:04;;;;;;;0.77;0.77;;;16.50;66.70;;;;;;4954745;28;43969;-72
2023/12/21 04:06:32;;;;;;;0.53;0.53;;;16.50;66.70;;;;;;4941414;28;43437;-72
2023/12/21 04:09:02;;;;;;;0.60;0.60;;;16.40;66.70;;;;;;4942238;28;43428;-72
2023/12/21 04:11:30;;;;;;;0.70;0.70;;;16.50;66.90;;;;;;4941925;28;43446;-72
2023/12/21 04:13:58;;;;;;;0.60;0.60;;;16.50;66.90;;;;;;4946644;28;44168;-72
2023/12/21 04:16:26;;;;;;;0.53;0.53;;;16.40;66.90;;;;;;4944174;28;43435;-72
2023/12/21 04:18:54;;;;;;;0.60;0.60;;;16.40;67.00;;;;;;4943051;28;43469;-72
2023/12/21 04:21:22;;;;;;;0.60;0.60;;;16.40;67.00;;;;;;4943098;28;43338;-72
2023/12/21 04:23:50;;;;;;;0.60;0.60;;;16.40;66.90;;;;;;4945196;28;43994;-72
2023/12/21 04:26:20;;;;;;;0.60;0.60;;;16.50;66.80;;;;;;4942168;28;43909;-72
2023/12/21 04:28:48;;;;;;;0.60;0.60;;;16.50;66.90;;;;;;4944701;28;43370;-72
2023/12/21 04:31:20;;;;;;;0.70;0.70;;;16.50;66.90;;;;;;4942610;28;43421;-72
2023/12/21 04:33:49;;;;;;;0.60;0.60;;;16.50;66.90;;;;;;4948608;28;43906;-71
2023/12/21 04:36:17;;;;;;;0.60;0.60;;;16.40;67.00;;;;;;4951982;28;43347;-72
2023/12/21 04:38:50;;;;;;;0.53;0.53;;;16.40;67.00;;;;;;4951254;28;43968;-71
2023/12/21 04:41:19;;;;;;;0.60;0.60;;;16.40;66.90;;;;;;4948540;28;43293;-71
2023/12/21 04:43:48;;;;;;;0.60;0.60;;;16.40;67.00;;;;;;4949144;28;45373;-72
2023/12/21 04:46:16;;;;;;;0.60;0.60;;;16.40;67.00;;;;;;4947774;28;43387;-72
2023/12/21 04:48:45;;;;;;;0.53;0.53;;;16.40;67.10;;;;;;4945715;28;43490;-72
2023/12/21 04:51:16;;;;;;;0.50;0.50;;;16.40;67.10;;;;;;4949814;28;43946;-71
2023/12/21 04:53:44;;;;;;;0.50;0.50;;;16.40;67.20;;;;;;4946675;28;43617;-71
2023/12/21 04:56:12;;;;;;;0.50;0.50;;;16.40;67.00;;;;;;4948027;28;43480;-71
2023/12/21 04:58:42;;;;;;;0.50;0.50;;;16.40;66.90;;;;;;4949063;28;43394;-71
2023/12/21 05:01:10;;;;;;;0.50;0.50;;;16.50;66.60;;;;;;4945497;28;43454;-71
2023/12/21 05:03:38;;;;;;;0.50;0.50;;;16.60;66.40;;;;;;4946175;28;43934;-71
2023/12/21 05:06:06;;;;;;;0.50;0.50;;;16.60;66.50;;;;;;4948518;28;43408;-71
2023/12/21 05:08:35;;;;;;;0.60;0.60;;;16.50;66.50;;;;;;4944961;28;43422;-71
2023/12/21 05:11:03;;;;;;;0.43;0.43;;;16.50;66.60;;;;;;4944895;28;43358;-71
2023/12/21 05:13:31;;;;;;;0.50;0.50;;;16.50;66.60;;;;;;4946347;28;46197;-71
2023/12/21 05:16:00;;;;;;;0.30;0.30;;;16.50;66.60;;;;;;4951412;28;43381;-71
2023/12/21 05:18:29;;;;;;;0.63;0.63;;;16.50;66.80;;;;;;4945370;28;44103;-71
2023/12/21 05:20:57;;;;;;;0.60;0.60;;;16.50;66.80;;;;;;4950009;28;43444;-71
2023/12/21 05:23:25;;;;;;;0.60;0.60;;;16.40;66.70;;;;;;4949952;28;44059;-72
2023/12/21 05:25:53;;;;;;;0.90;0.90;;;16.40;66.80;;;;;;4945614;28;43503;-72
2023/12/21 05:28:21;;;;;;;1.87;1.20;;;16.40;66.80;;;;;;4946763;28;43326;-72
2023/12/21 05:30:49;;;;;;;2.37;1.03;;;16.40;66.80;;;;;;4951626;28;43453;-72
2023/12/21 05:33:18;;;;;;;1.03;1.03;;;16.40;67.00;;;;;;4948223;28;43982;-72
2023/12/21 05:35:46;;;;;;;1.00;1.00;;;16.40;67.00;;;;;;4949272;28;43794;-72
2023/12/21 05:38:14;;;;;;;1.07;1.07;;;16.40;67.00;;;;;;4945659;28;43379;-73
2023/12/21 05:40:42;;;;;;;7.80;1.67;;;16.40;67.00;;;;;;4943949;28;44039;-72
2023/12/21 05:43:11;;;;;;;2.53;1.83;;;16.40;67.00;;;;;;4949006;28;43895;-72
2023/12/21 05:45:39;;;;;;;4.17;1.70;;;16.40;67.00;;;;;;4947552;28;43373;-72
2023/12/21 05:48:07;;;;;;;2.03;1.60;;;16.40;67.00;;;;;;4951211;28;44068;-72
2023/12/21 05:50:37;;;;;;;1.13;1.13;;;16.40;67.00;;;;;;4941941;28;43434;-72
2023/12/21 05:53:06;;;;;;;2.07;1.47;;;16.40;67.00;;;;;;4937625;28;45650;-72
2023/12/21 05:55:34;;;;;;;2.87;1.50;;;16.50;67.10;;;;;;4950505;28;43389;-72
2023/12/21 05:58:02;;;;;;;3.50;1.80;;;16.50;67.10;;;;;;4943348;28;43397;-72
2023/12/21 06:00:30;;;;;;;1.73;1.63;;;16.50;66.90;;;;;;4947242;28;43595;-72
2023/12/21 06:02:59;;;;;;;1.60;1.47;;;16.50;66.90;;;;;;4946581;28;43946;-72
2023/12/21 06:05:27;;;;;;;4.40;1.80;;;16.60;66.70;;;;;;4943604;28;43461;-72
2023/12/21 06:07:56;;;;;;;4.10;1.80;;;16.60;66.20;;;;;;4947078;28;43474;-72
2023/12/21 06:10:24;;;;;;;2.00;1.77;;;16.70;66.00;;;;;;4946644;28;43434;-72
2023/12/21 06:12:52;;;;;;;1.83;1.70;;;16.70;66.10;;;;;;4945267;28;45349;-72
2023/12/21 06:15:20;;;;;;;2.17;1.97;;;16.70;66.20;;;;;;4941060;28;43369;-72
2023/12/21 06:17:48;;;;;;;1.87;1.70;;;16.70;66.10;;;;;;4949995;28;43409;-72
2023/12/21 06:20:17;;;;;;;3.17;1.80;;;16.70;66.10;;;;;;4951381;28;43454;-72
2023/12/21 06:22:45;;;;;;;1.73;1.57;;;16.70;66.30;;;;;;4941011;28;43868;-72
2023/12/21 06:25:15;;;;;;;1.60;1.50;;;16.60;66.30;;;;;;4949664;28;43504;-72
2023/12/21 06:27:43;;;;;;;2.40;1.93;;;16.60;66.40;;;;;;4943032;28;43411;-72
2023/12/21 06:30:11;;;;;;;2.10;1.93;;;16.60;66.50;;;;;;4947472;28;43579;-72
2023/12/21 06:32:40;;;;;;;2.10;1.70;;;16.60;66.60;;;;;;4944545;28;44987;-72
2023/12/21 06:35:09;;;;;;;1.80;1.70;;;16.60;66.50;;;;;;4943625;28;43462;-73
2023/12/21 06:37:37;;;;;;;1.70;1.60;;;16.50;66.50;;;;;;4943305;28;43543;-72
2023/12/21 06:40:08;;;;;;;1.90;1.80;;;16.60;66.70;;;;;;4945317;28;44074;-72
2023/12/21 06:42:38;;;;;;;1.80;1.70;;;16.50;66.60;;;;;;4945621;28;43838;-72
2023/12/21 06:45:07;;;;;;;1.90;1.80;;;16.50;66.70;;;;;;4947231;28;43414;-72
2023/12/21 06:47:35;;;;;;;2.60;1.87;;;16.50;66.70;;;;;;4944232;28;43897;-72
2023/12/21 06:50:03;;;;;;;2.40;1.83;;;16.50;66.70;;;;;;4947111;28;43915;-72
2023/12/21 06:52:32;;;;;;;1.87;1.70;;;16.50;66.60;;;;;;4945815;28;43930;-72
2023/12/21 06:55:00;;;;;;;3.10;1.97;;;16.60;66.40;;;;;;4945017;28;43469;-72
2023/12/21 06:57:28;;;;;;;1.90;1.80;;;16.70;66.20;;;;;;4940407;28;44177;-72
2023/12/21 06:59:57;;;;;;;1.70;1.60;;;16.70;66.30;;;;;;4947902;28;43493;-72
2023/12/21 07:02:25;;;;;;;2.23;2.00;;;16.70;66.30;;;;;;4944174;28;43616;-72
2023/12/21 07:04:54;;;;;;;1.87;1.77;;;16.70;66.40;;;;;;4943541;28;43428;-72
2023/12/21 07:07:22;;;;;;;1.70;1.60;;;16.60;66.30;;;;;;4945153;28;43400;-72
2023/12/21 07:09:50;;;;;;;2.33;1.83;;;16.60;66.40;;;;;;4946300;28;43755;-71
2023/12/21 07:12:19;;;;;;;1.40;1.23;;;16.60;66.50;;;;;;4941148;28;45709;-72
2023/12/21 07:14:47;;;;;;;1.50;1.40;;;16.60;66.50;;;;;;4943567;28;43974;-72
2023/12/21 07:17:17;;;;;;;1.80;1.70;;;16.50;66.50;;;;;;4943708;28;43397;-72
2023/12/21 07:19:45;;;;;;;1.43;1.43;;;16.50;66.60;;;;;;4940658;28;43433;-72
2023/12/21 07:22:13;;;;;;;1.40;1.30;;;16.50;66.70;;;;;;4947652;28;46080;-72
2023/12/21 07:24:41;;;;;;;1.70;1.60;;;16.50;66.60;;;;;;4947521;28;43568;-72
2023/12/21 07:27:09;;;;;;;1.37;1.30;;;16.50;66.70;;;;;;4946935;28;43433;-72
2023/12/21 07:29:37;;;;;;;1.60;1.50;;;16.50;66.80;;;;;;4949408;28;44100;-72
2023/12/21 07:32:05;;;;;;;2.03;1.50;;;16.50;66.80;;;;;;4945500;28;43786;-71
2023/12/21 07:39:29;;;;;;;1.70;1.60;;;16.50;66.90;;;;;;4928216;28;43354;-72
2023/12/21 07:41:59;;;;;;;1.60;1.50;;;16.50;66.70;;;;;;4948953;28;43860;-72
2023/12/21 07:44:27;;;;;;;1.73;1.63;;;16.50;66.60;;;;;;4945956;28;43864;-71
2023/12/21 07:46:55;;;;;;;1.40;1.40;;;16.60;66.40;;;;;;4941882;28;43401;-71
2023/12/21 07:49:23;;;;;;;4.07;1.70;;;16.60;66.30;;;;;;4941484;28;43547;-71
2023/12/21 07:51:51;;;;;;;1.90;1.80;;;16.70;66.50;;;;;;4946111;28;43341;-71
2023/12/21 07:54:19;;;;;;;1.70;1.60;;;16.60;66.50;;;;;;4944523;28;44071;-71
2023/12/21 07:56:48;;;;;;;2.10;1.70;;;16.60;66.50;;;;;;4947376;28;43386;-71
2023/12/21 07:59:18;;;;;;;1.70;1.60;;;16.60;66.50;;;;;;4946409;28;43470;-71
2023/12/21 08:01:46;;;;;;;1.70;1.60;;;16.60;66.60;;;;;;4945938;28;43489;-72
2023/12/21 08:04:16;;;;;;;1.70;1.60;;;16.60;66.60;;;;;;4943503;28;43604;-71
2023/12/21 08:06:44;;;;;;;1.70;1.60;;;16.60;66.70;;;;;;4945128;28;43389;-71
2023/12/21 08:09:12;;;;;;;1.80;1.70;;;16.60;66.70;;;;;;4943290;28;43513;-71
2023/12/21 08:11:40;;;;;;;1.97;1.87;;;16.50;66.70;;;;;;4941330;28;43419;-74
2023/12/21 08:14:08;;;;;;;1.70;1.50;;;16.50;66.70;;;;;;4946217;28;43990;-71
2023/12/21 08:16:37;;;;;;;1.70;1.60;;;16.50;66.60;;;;;;4945180;28;44728;-71
2023/12/21 08:19:06;;;;;;;2.50;1.43;;;16.60;66.40;;;;;;4944360;28;43387;-71
2023/12/21 08:21:35;;;;;;;1.43;1.43;;;16.70;66.40;;;;;;4942021;28;43525;-71
2023/12/21 08:24:03;;;;;;;1.40;1.40;;;16.70;66.40;;;;;;4947641;28;43960;-71
2023/12/21 08:26:31;;;;;;;1.60;1.50;;;16.70;67.20;;;;;;4946697;28;43406;-71
2023/12/21 08:28:59;;;;;;;1.67;1.50;;;16.60;66.50;;;;;;4942526;28;43422;-71
2023/12/21 08:31:28;;;;;;;1.20;1.20;;;16.60;66.50;;;;;;4943997;28;43540;-71
2023/12/21 08:33:57;;;;;;;1.50;1.40;;;16.60;66.60;;;;;;4940767;28;43982;-71
2023/12/21 08:36:25;;;;;;;1.47;1.37;;;16.60;66.60;;;;;;4943094;28;43369;-71
2023/12/21 08:38:53;;;;;;;1.40;1.40;;;16.60;66.70;;;;;;4947932;28;44172;-71
2023/12/21 08:41:24;;;;;;;1.43;1.33;;;16.60;66.80;;;;;;4947360;28;43405;-71
2023/12/21 08:43:52;;;;;;;1.90;1.80;;;16.60;66.80;;;;;;4945479;28;45928;-71
2023/12/21 08:46:20;;;;;;;1.33;1.30;;;16.50;66.80;;;;;;4942519;28;43373;-71
2023/12/21 08:48:48;;;;;;;1.63;1.53;;;16.50;66.70;;;;;;4947731;28;43461;-71
2023/12/21 08:51:18;;;;;;;1.60;1.50;;;16.60;66.70;;;;;;4941077;28;43835;-71
2023/12/21 08:53:47;;;;;;;1.57;1.53;;;16.60;66.40;;;;;;4954945;28;43859;-69
2023/12/21 08:56:15;;;;;;;1.33;1.23;;;16.70;66.40;;;;;;4965937;28;43414;-68
2023/12/21 08:58:43;;;;;;;1.47;1.47;;;16.70;66.50;;;;;;4965215;28;43382;-69
2023/12/21 09:01:12;;;;;;;1.50;1.50;;;16.60;66.60;;;;;;4967434;28;43377;-68
2023/12/21 09:03:40;;;;;;;1.43;1.33;;;16.60;66.60;;;;;;4962563;28;43654;-68
2023/12/21 09:06:08;;;;;;;1.37;1.33;;;16.60;66.60;;;;;;4970610;28;43401;-69
2023/12/21 09:13:31;;;;;;;1.70;1.60;;;16.60;66.70;;;;;;4965773;28;43439;-69
2023/12/21 09:16:00;;;;;;;1.40;1.40;;;16.60;66.80;;;;;;4963955;28;44037;-69
2023/12/21 09:18:28;;;;;;;1.50;1.50;;;16.50;66.80;;;;;;4962894;28;44706;-69
2023/12/21 09:20:56;;;;;;;1.10;1.10;;;16.50;66.70;;;;;;4959244;28;43394;-69
2023/12/21 09:23:24;;;;;;;1.20;1.20;;;16.50;66.80;;;;;;4959026;28;43428;-69
2023/12/21 09:25:52;;;;;;;1.40;1.40;;;16.50;66.90;;;;;;4959636;28;43609;-69
2023/12/21 09:28:22;;;;;;;1.40;1.30;;;16.50;66.90;;;;;;4957561;28;43366;-69
2023/12/21 09:30:50;;;;;;;1.40;1.40;;;16.50;66.90;;;;;;4960567;28;43432;-68
2023/12/21 09:33:20;;;;;;;1.27;1.27;;;16.50;66.90;;;;;;4963987;28;43523;-68
2023/12/21 09:35:54;;;;;;;1.47;1.40;;;16.50;66.90;;;;;;4966109;28;43623;-69
2023/12/21 09:38:22;;;;;;;1.23;1.23;;;16.50;66.90;;;;;;4956697;28;43418;-70
2023/12/21 09:40:50;;;;;;;1.10;1.10;;;16.60;66.80;;;;;;4960733;28;43513;-69
2023/12/21 09:43:18;;;;;;;1.60;1.50;;;16.60;66.40;;;;;;4963108;28;43405;-70
2023/12/21 09:45:47;;;;;;;1.43;1.43;;;16.70;66.30;;;;;;4959185;28;43808;-69
2023/12/21 09:48:15;;;;;;;1.30;1.30;;;16.70;66.30;;;;;;4966061;28;43926;-69
2023/12/21 09:50:45;;;;;;;1.20;1.20;;;16.70;66.40;;;;;;4958026;28;43449;-68
2023/12/21 09:53:18;;;;;;;1.23;1.23;;;16.60;66.30;;;;;;4966014;28;43468;-69
2023/12/21 09:55:46;;;;;;;1.40;1.30;;;16.60;66.30;;;;;;4968302;28;45443;-69
2023/12/21 09:58:14;;;;;;;1.20;1.20;;;16.70;66.50;;;;;;4959032;28;43345;-69
2023/12/21 10:00:42;;;;;;;1.30;1.30;;;16.60;66.50;;;;;;4959930;28;43467;-69
2023/12/21 10:03:10;;;;;;;1.33;1.33;;;16.60;66.60;;;;;;4962471;28;43392;-71
2023/12/21 10:05:40;;;;;;;1.07;1.07;;;16.60;66.70;;;;;;4937601;28;43966;-71
2023/12/21 10:08:09;;;;;;;1.40;1.40;;;16.60;66.80;;;;;;4938344;28;43457;-71
2023/12/21 10:10:38;;;;;;;1.47;1.47;;;16.50;66.70;;;;;;4938787;28;43454;-71
2023/12/21 10:13:06;;;;;;;1.20;1.20;;;16.60;66.90;;;;;;4936447;28;43562;-71
2023/12/21 10:15:36;;;;;;;1.10;1.10;;;16.60;66.90;;;;;;4939076;28;43600;-71
2023/12/21 10:18:07;;;;;;;1.20;1.20;;;16.50;66.80;;;;;;4936628;28;43496;-78
2023/12/21 10:20:40;;;;;;;1.37;1.37;;;16.50;66.90;;;;;;4931641;28;43879;-78
2023/12/21 10:23:11;;;;;;;1.40;1.40;;;16.50;66.90;;;;;;4934603;28;44478;-71
2023/12/21 10:25:39;;;;;;;1.20;1.20;;;16.50;66.90;;;;;;4936042;28;43618;-71
2023/12/21 10:28:08;;;;;;;1.30;1.30;;;16.50;66.90;;;;;;4931756;28;45413;-71
2023/12/21 10:30:39;;;;;;;1.10;1.10;;;16.60;66.70;;;;;;4934082;28;43814;-71
2023/12/21 10:33:09;;;;;;;1.30;1.30;;;16.60;66.40;;;;;;4937727;28;44454;-72
2023/12/21 10:35:38;;;;;;;1.10;1.10;;;16.70;66.40;;;;;;4930381;28;45980;-71
2023/12/21 10:38:11;;;;;;;1.27;1.27;;;16.70;66.50;;;;;;4931899;28;43940;-71
2023/12/21 10:40:39;;;;;;;1.20;1.20;;;16.60;67.30;;;;;;4935905;28;43441;-71
2023/12/21 10:43:07;;;;;;;1.20;1.20;;;16.60;66.40;;;;;;4940067;28;43929;-71
2023/12/21 10:45:35;;;;;;;0.80;0.80;;;16.60;66.70;;;;;;4933887;28;44028;-71
2023/12/21 10:48:06;;;;;;;1.10;1.10;;;16.60;66.60;;;;;;4931678;28;43481;-71
2023/12/21 10:50:35;;;;;;;0.90;0.90;;;16.60;66.70;;;;;;4938337;28;43406;-71
2023/12/21 10:53:03;;;;;;;1.20;1.20;;;16.60;66.80;;;;;;4936578;28;43330;-71
2023/12/21 10:55:33;;;;;;;1.20;1.20;;;16.60;66.90;;;;;;4935018;28;43607;-71
2023/12/21 10:58:01;;;;;;;1.33;1.33;;;16.60;66.80;;;;;;4934810;28;43346;-71
2023/12/21 11:00:29;;;;;;;0.93;0.93;;;16.60;66.80;;;;;;4932506;28;43357;-71
2023/12/21 11:02:57;;;;;;;1.10;1.10;;;16.60;66.90;;;;;;4934185;28;43458;-71
2023/12/21 11:05:26;;;;;;;1.20;1.20;;;16.60;67.00;;;;;;4934320;28;45806;-71
2023/12/21 11:07:55;;;;;;;1.03;1.03;;;16.60;67.00;;;;;;4934877;28;43403;-71
2023/12/21 11:10:24;;;;;;;0.90;0.90;;;16.60;67.00;;;;;;4938853;28;43379;-71
2023/12/21 11:12:53;;;;;;;1.10;1.10;;;16.60;67.00;;;;;;4939305;28;43465;-71
2023/12/21 11:15:21;;;;;;;1.10;1.10;;;16.50;66.90;;;;;;4934451;28;43625;-72
2023/12/21 11:17:51;;;;;;;1.20;1.20;;;16.60;66.90;;;;;;4934739;28;43702;-72
2023/12/21 11:20:24;;;;;;;1.07;1.07;;;16.60;66.70;;;;;;4937881;28;43455;-72
2023/12/21 11:23:09;;;;;;;1.07;1.07;;;16.70;66.30;;;;;;4934270;28;43437;-72
2023/12/21 11:25:37;;;;;;;1.10;1.10;;;16.80;66.30;;;;;;4939210;28;43953;-72
2023/12/21 11:28:06;;;;;;;0.90;0.90;;;16.80;66.40;;;;;;4936793;28;44687;-72
2023/12/21 11:30:35;;;;;;;0.90;0.90;;;16.70;66.40;;;;;;4931831;28;43513;-72
2023/12/21 11:33:08;;;;;;;1.10;1.10;;;16.70;67.10;;;;;;4936022;28;43434;-72
2023/12/21 11:35:36;;;;;;;0.90;0.90;;;16.60;66.30;;;;;;4938215;28;43866;-72
2023/12/21 11:38:06;;;;;;;1.03;1.03;;;16.70;66.60;;;;;;4936354;28;43467;-72
2023/12/21 11:40:35;;;;;;;0.90;0.90;;;16.70;66.70;;;;;;4937486;28;43444;-72
2023/12/21 11:43:06;;;;;;;1.10;1.10;;;16.60;66.70;;;;;;4939922;28;43384;-72
2023/12/21 11:45:38;;;;;;;1.00;1.00;;;16.60;66.70;;;;;;4931163;28;43922;-72
2023/12/21 11:48:11;;;;;;;1.00;1.00;;;16.60;66.80;;;;;;4931733;28;43921;-72
2023/12/21 11:50:39;;;;;;;0.90;0.90;;;16.60;66.70;;;;;;4936563;28;43379;-72
2023/12/21 11:53:08;;;;;;;1.10;1.10;;;16.60;66.80;;;;;;4935595;28;43486;-72
2023/12/21 11:55:43;;;;;;;1.03;1.03;;;16.60;67.60;;;;;;4932669;28;43912;-72
2023/12/21 11:58:16;;;;;;;1.10;1.10;;;16.60;66.90;;;;;;4932764;28;43444;-72
2023/12/21 12:00:48;;;;;;;0.90;0.90;;;16.60;67.00;;;;;;4931390;28;43943;-72
2023/12/21 12:03:17;;;;;;;1.00;1.00;;;16.60;67.00;;;;;;4934647;28;43493;-72
2023/12/21 12:05:45;;;;;;;0.80;0.80;;;16.50;66.80;;;;;;4939517;28;45778;-72
2023/12/21 12:08:15;;;;;;;0.97;0.97;;;16.60;66.80;;;;;;4938871;28;43779;-71
2023/12/21 12:10:43;;;;;;;0.90;0.90;;;16.70;66.60;;;;;;4941397;28;43940;-71
2023/12/21 12:13:16;;;;;;;0.90;0.90;;;16.70;66.40;;;;;;4931740;28;43437;-72
2023/12/21 12:15:47;;;;;;;0.80;0.80;;;16.70;66.60;;;;;;4936279;28;43898;-72
2023/12/21 12:18:15;;;;;;;0.90;0.90;;;16.70;66.60;;;;;;4933964;28;43475;-72
2023/12/21 12:20:43;;;;;;;0.80;0.80;;;16.70;66.70;;;;;;4932441;28;43374;-72
2023/12/21 12:23:11;;;;;;;0.97;0.97;;;16.60;66.50;;;;;;4938888;28;43386;-72
2023/12/21 12:25:40;;;;;;;0.90;0.90;;;16.70;66.70;;;;;;4957882;28;43604;-69
2023/12/21 12:28:17;;;;;;;0.70;0.70;;;16.60;66.70;;;;;;4959195;28;43334;-68
2023/12/21 12:30:47;;;;;;;0.70;0.70;;;16.70;66.80;;;;;;4959093;28;43421;-68
2023/12/21 12:33:16;;;;;;;0.87;0.87;;;16.60;66.80;;;;;;4956361;28;43370;-69
2023/12/21 12:35:48;;;;;;;1.00;1.00;;;16.60;66.80;;;;;;4962818;28;43860;-69
2023/12/21 12:38:17;;;;;;;0.80;0.80;;;16.60;66.90;;;;;;4954518;28;43433;-69
2023/12/21 12:40:48;;;;;;;0.80;0.80;;;16.60;66.80;;;;;;4955123;28;43410;-69
2023/12/21 12:43:17;;;;;;;0.83;0.83;;;16.60;66.90;;;;;;4956935;28;43434;-68
2023/12/21 12:45:46;;;;;;;0.93;0.93;;;16.60;67.00;;;;;;4959121;28;43707;-69
2023/12/21 12:48:17;;;;;;;0.80;0.80;;;16.60;67.00;;;;;;4955402;28;43375;-69
2023/12/21 12:50:46;;;;;;;0.70;0.70;;;16.60;67.00;;;;;;4958069;28;43407;-68
2023/12/21 12:53:16;;;;;;;0.90;0.90;;;16.60;67.00;;;;;;4959569;28;43580;-69
2023/12/21 12:55:45;;;;;;;0.70;0.70;;;16.60;67.10;;;;;;4963226;28;43774;-69
2023/12/21 12:58:14;;;;;;;0.80;0.80;;;16.60;66.90;;;;;;4959184;28;44970;-69
2023/12/21 13:00:42;;;;;;;0.87;0.87;;;16.70;66.80;;;;;;4965793;28;43545;-70
2023/12/21 13:03:12;;;;;;;0.70;0.70;;;16.80;66.50;;;;;;4961241;28;43386;-68
2023/12/21 13:05:40;;;;;;;0.80;0.80;;;16.80;66.20;;;;;;4964849;28;44178;-69